sensor_id;sensor_type;location;lat;lon;timestamp;P1;P2;P0
31163;PMS5003;17796;49.296;-117.656;2023-03-14T00:07:44;13;12;
31163;PMS5003;17796;49.296;-117.656;2023-03-14T00:22:48;21;18;
31163;PMS5003;17796;49.296;-117.656;2023-03-14T00:37:51;13;10;
31163;PMS5003;17796;49.296;-117.656;2023-03-14T00:52:55;10;7;
31163;PMS5003;17796;49.296;-117.656;2023-03-14T01:07:59;7;7;
31163;PMS5003;17796;49.296;-117.656;2023-03-14T01:23:03;19;11;
31163;PMS5003;17796;49.296;-117.656;2023-03-14T01:38:07;17;11;
31163;PMS5003;17796;49.296;-117.656;2023-03-14T01:53:11;18;14;
31163;PMS5003;17796;49.296;-117.656;2023-03-14T02:08:17;14;11;
31163;PMS5003;17796;49.296;-117.656;2023-03-14T02:23:31;22;16;
31163;PMS5003;17796;49.296;-117.656;2023-03-14T02:38:39;16;13;
31163;PMS5003;17796;49.296;-117.656;2023-03-14T02:53:47;13;12;
31163;PMS5003;17796;49.296;-117.656;2023-03-14T03:08:51;12;12;
31163;PMS5003;17796;49.296;-117.656;2023-03-14T03:23:54;6;6;
31163;PMS5003;17796;49.296;-117.656;2023-03-14T03:38:58;14;11;
31163;PMS5003;17796;49.296;-117.656;2023-03-14T03:54:02;13;9;
31163;PMS5003;17796;49.296;-117.656;2023-03-14T04:09:06;17;14;
31163;PMS5003;17796;49.296;-117.656;2023-03-14T04:24:10;17;13;
31163;PMS5003;17796;49.296;-117.656;2023-03-14T04:39:13;16;13;
31163;PMS5003;17796;49.296;-117.656;2023-03-14T04:54:17;14;13;
31163;PMS5003;17796;49.296;-117.656;2023-03-14T05:09:21;12;9;
31163;PMS5003;17796;49.296;-117.656;2023-03-14T05:24:25;10;9;
31163;PMS5003;17796;49.296;-117.656;2023-03-14T05:39:29;5;5;
31163;PMS5003;17796;49.296;-117.656;2023-03-14T05:54:33;2;1;
31163;PMS5003;17796;49.296;-117.656;2023-03-14T06:09:37;1;1;
31163;PMS5003;17796;49.296;-117.656;2023-03-14T06:24:41;2;2;
31163;PMS5003;17796;49.296;-117.656;2023-03-14T06:39:45;3;3;
31163;PMS5003;17796;49.296;-117.656;2023-03-14T06:54:48;7;3;
31163;PMS5003;17796;49.296;-117.656;2023-03-14T07:09:52;0;0;
31163;PMS5003;17796;49.296;-117.656;2023-03-14T07:24:56;0;0;
31163;PMS5003;17796;49.296;-117.656;2023-03-14T07:40:00;1;1;
31163;PMS5003;17796;49.296;-117.656;2023-03-14T07:55:04;1;1;
31163;PMS5003;17796;49.296;-117.656;2023-03-14T08:10:09;1;1;
31163;PMS5003;17796;49.296;-117.656;2023-03-14T08:25:14;1;1;
31163;PMS5003;17796;49.296;-117.656;2023-03-14T08:40:18;1;1;
31163;PMS5003;17796;49.296;-117.656;2023-03-14T08:55:22;1;1;
31163;PMS5003;17796;49.296;-117.656;2023-03-14T09:10:25;1;1;
31163;PMS5003;17796;49.296;-117.656;2023-03-14T09:25:29;3;1;
31163;PMS5003;17796;49.296;-117.656;2023-03-14T09:40:35;1;1;
31163;PMS5003;17796;49.296;-117.656;2023-03-14T09:55:39;11;7;
31163;PMS5003;17796;49.296;-117.656;2023-03-14T10:10:45;3;3;
31163;PMS5003;17796;49.296;-117.656;2023-03-14T10:26:11;2;2;
31163;PMS5003;17796;49.296;-117.656;2023-03-14T10:41:18;2;2;
31163;PMS5003;17796;49.296;-117.656;2023-03-14T10:56:24;1;1;
31163;PMS5003;17796;49.296;-117.656;2023-03-14T11:11:30;2;2;
31163;PMS5003;17796;49.296;-117.656;2023-03-14T11:26:37;4;4;
31163;PMS5003;17796;49.296;-117.656;2023-03-14T11:41:47;8;8;
31163;PMS5003;17796;49.296;-117.656;2023-03-14T11:56:57;7;5;
31163;PMS5003;17796;49.296;-117.656;2023-03-14T12:12:03;10;8;
31163;PMS5003;17796;49.296;-117.656;2023-03-14T12:27:37;9;8;
31163;PMS5003;17796;49.296;-117.656;2023-03-14T12:42:53;12;8;
31163;PMS5003;17796;49.296;-117.656;2023-03-14T12:58:04;18;10;
31163;PMS5003;17796;49.296;-117.656;2023-03-14T13:13:19;15;13;
31163;PMS5003;17796;49.296;-117.656;2023-03-14T13:28:24;10;9;
31163;PMS5003;17796;49.296;-117.656;2023-03-14T13:43:30;19;13;
31163;PMS5003;17796;49.296;-117.656;2023-03-14T13:58:38;23;13;
31163;PMS5003;17796;49.296;-117.656;2023-03-14T14:13:42;9;7;
31163;PMS5003;17796;49.296;-117.656;2023-03-14T14:28:46;10;9;
31163;PMS5003;17796;49.296;-117.656;2023-03-14T14:43:52;3;2;
31163;PMS5003;17796;49.296;-117.656;2023-03-14T14:58:59;25;21;
31163;PMS5003;17796;49.296;-117.656;2023-03-14T15:14:03;18;17;
31163;PMS5003;17796;49.296;-117.656;2023-03-14T15:29:09;15;13;
31163;PMS5003;17796;49.296;-117.656;2023-03-14T15:44:13;20;14;
31163;PMS5003;17796;49.296;-117.656;2023-03-14T15:59:17;15;13;
31163;PMS5003;17796;49.296;-117.656;2023-03-14T16:14:21;15;14;
31163;PMS5003;17796;49.296;-117.656;2023-03-14T16:29:24;25;18;
31163;PMS5003;17796;49.296;-117.656;2023-03-14T16:44:28;19;17;
31163;PMS5003;17796;49.296;-117.656;2023-03-14T16:59:32;21;20;
31163;PMS5003;17796;49.296;-117.656;2023-03-14T17:14:35;18;16;
31163;PMS5003;17796;49.296;-117.656;2023-03-14T17:29:39;20;15;
31163;PMS5003;17796;49.296;-117.656;2023-03-14T17:44:42;0;0;
31163;PMS5003;17796;49.296;-117.656;2023-03-14T17:59:46;3;3;
31163;PMS5003;17796;49.296;-117.656;2023-03-14T18:14:50;0;0;
31163;PMS5003;17796;49.296;-117.656;2023-03-14T18:29:53;1;1;
31163;PMS5003;17796;49.296;-117.656;2023-03-14T18:44:57;0;0;
31163;PMS5003;17796;49.296;-117.656;2023-03-14T19:00:00;1;1;
31163;PMS5003;17796;49.296;-117.656;2023-03-14T19:15:04;2;1;
31163;PMS5003;17796;49.296;-117.656;2023-03-14T19:30:09;1;1;
31163;PMS5003;17796;49.296;-117.656;2023-03-14T19:45:13;0;0;
31163;PMS5003;17796;49.296;-117.656;2023-03-14T20:00:18;0;0;
31163;PMS5003;17796;49.296;-117.656;2023-03-14T20:15:21;1;1;
31163;PMS5003;17796;49.296;-117.656;2023-03-14T20:30:25;0;0;
31163;PMS5003;17796;49.296;-117.656;2023-03-14T20:45:28;1;1;
31163;PMS5003;17796;49.296;-117.656;2023-03-14T21:00:32;1;1;
31163;PMS5003;17796;49.296;-117.656;2023-03-14T21:15:36;0;0;
31163;PMS5003;17796;49.296;-117.656;2023-03-14T21:30:40;0;0;
31163;PMS5003;17796;49.296;-117.656;2023-03-14T21:45:44;2;0;
31163;PMS5003;17796;49.296;-117.656;2023-03-14T22:00:50;0;0;
31163;PMS5003;17796;49.296;-117.656;2023-03-14T22:15:54;2;2;
31163;PMS5003;17796;49.296;-117.656;2023-03-14T22:30:58;1;1;
31163;PMS5003;17796;49.296;-117.656;2023-03-14T22:46:04;2;1;
31163;PMS5003;17796;49.296;-117.656;2023-03-14T23:01:08;2;2;
31163;PMS5003;17796;49.296;-117.656;2023-03-14T23:16:12;0;0;
31163;PMS5003;17796;49.296;-117.656;2023-03-14T23:31:16;2;2;
31163;PMS5003;17796;49.296;-117.656;2023-03-14T23:46:20;2;2;
